createdAt,value
2017-08-26T00:00:12.837Z,89.00
2017-08-26T00:02:46.784Z,89.20
2017-08-26T00:05:24.374Z,89.10
2017-08-26T00:07:55.494Z,89.10
2017-08-26T00:10:23.011Z,89.10
2017-08-26T00:12:54.362Z,89.10
2017-08-26T00:15:21.868Z,89.20
2017-08-26T00:17:55.267Z,89.10
2017-08-26T00:20:24.354Z,89.30
2017-08-26T00:22:55.669Z,89.40
2017-08-26T00:25:24.825Z,89.40
2017-08-26T00:27:52.331Z,89.20
2017-08-26T00:30:26.640Z,89.60
2017-08-26T00:33:04.017Z,89.30
2017-08-26T00:35:31.815Z,89.60
2017-08-26T00:38:05.038Z,89.60
2017-08-26T00:40:34.260Z,90.30
2017-08-26T00:43:01.768Z,90.00
2017-08-26T00:45:29.304Z,90.00
2017-08-26T00:47:56.819Z,90.00
2017-08-26T00:50:24.339Z,90.00
2017-08-26T00:52:51.853Z,89.90
2017-08-26T00:55:25.692Z,90.00
2017-08-26T00:57:54.824Z,90.00
2017-08-26T01:00:23.923Z,89.90
2017-08-26T01:02:54.763Z,89.70
2017-08-26T01:05:25.870Z,89.50
2017-08-26T01:07:54.822Z,89.60
2017-08-26T01:10:22.310Z,89.50
2017-08-26T01:12:56.695Z,89.60
2017-08-26T01:15:24.191Z,90.00
2017-08-26T01:17:54.839Z,90.20
2017-08-26T01:20:22.347Z,90.10
2017-08-26T01:22:49.847Z,90.10
2017-08-26T01:25:17.654Z,90.10
2017-08-26T01:27:45.930Z,90.20
2017-08-26T01:30:14.036Z,90.20
2017-08-26T01:32:41.551Z,90.30
2017-08-26T01:35:09.047Z,90.20
2017-08-26T01:37:43.985Z,90.10
2017-08-26T01:40:11.488Z,90.20
2017-08-26T01:42:39.275Z,90.20
2017-08-26T01:45:06.761Z,90.30
2017-08-26T01:47:44.837Z,90.30
2017-08-26T01:50:12.343Z,90.30
2017-08-26T01:52:39.857Z,90.20
2017-08-26T01:55:07.364Z,90.20
2017-08-26T01:57:34.854Z,90.30
2017-08-26T02:00:02.640Z,90.20
2017-08-26T02:02:30.137Z,90.20
2017-08-26T02:05:04.562Z,90.10
2017-08-26T02:07:35.211Z,90.10
2017-08-26T02:10:02.709Z,90.00
2017-08-26T02:12:30.203Z,90.20
2017-08-26T02:14:57.711Z,90.20
2017-08-26T02:17:25.515Z,90.30
2017-08-26T02:19:53.008Z,90.30
2017-08-26T02:22:26.750Z,90.30
2017-08-26T02:25:03.942Z,90.30
2017-08-26T02:27:31.804Z,90.30
2017-08-26T02:29:59.291Z,90.20
2017-08-26T02:32:34.176Z,90.10
2017-08-26T02:35:01.697Z,90.10
2017-08-26T02:37:35.403Z,90.10
2017-08-26T02:40:04.097Z,90.00
2017-08-26T02:42:31.587Z,90.00
2017-08-26T02:45:05.065Z,90.00
2017-08-26T02:47:35.803Z,90.10
2017-08-26T02:50:04.377Z,90.10
2017-08-26T02:52:35.076Z,90.20
2017-08-26T02:55:02.851Z,90.10
2017-08-26T02:57:30.346Z,90.00
2017-08-26T03:00:03.971Z,90.00
2017-08-26T03:02:31.468Z,90.00
2017-08-26T03:05:05.347Z,90.00
2017-08-26T03:07:32.912Z,90.10
2017-08-26T03:10:00.481Z,90.10
2017-08-26T03:12:28.329Z,90.10
2017-08-26T03:15:03.828Z,90.20
2017-08-26T03:17:31.639Z,90.20
2017-08-26T03:20:00.045Z,90.20
2017-08-26T03:22:27.537Z,90.20
2017-08-26T03:25:03.552Z,90.20
2017-08-26T03:27:31.048Z,90.20
2017-08-26T03:29:58.878Z,90.20
2017-08-26T03:32:26.372Z,90.30
2017-08-26T03:34:54.200Z,90.50
2017-08-26T03:37:21.702Z,90.60
2017-08-26T03:39:49.209Z,90.80
2017-08-26T03:42:16.719Z,90.90
2017-08-26T03:44:54.280Z,90.90
2017-08-26T03:47:22.128Z,90.90
2017-08-26T03:49:49.642Z,90.80
2017-08-26T03:52:24.332Z,90.80
2017-08-26T03:54:54.861Z,90.80
2017-08-26T03:57:22.353Z,90.80
2017-08-26T03:59:49.856Z,90.80
2017-08-26T04:02:17.346Z,90.80
2017-08-26T04:04:55.224Z,90.90
2017-08-26T04:07:22.702Z,91.00
2017-08-26T04:09:50.201Z,91.00
2017-08-26T04:12:24.250Z,91.00
2017-08-26T04:14:51.744Z,91.10
2017-08-26T04:17:19.252Z,91.10
2017-08-26T04:19:54.321Z,91.20
2017-08-26T04:22:21.804Z,91.20
2017-08-26T04:24:49.314Z,91.20
2017-08-26T04:27:16.828Z,91.20
2017-08-26T04:29:54.310Z,91.20
2017-08-26T04:32:24.839Z,91.10
2017-08-26T04:34:52.335Z,91.10
2017-08-26T04:37:24.244Z,91.20
2017-08-26T04:39:51.735Z,91.20
2017-08-26T04:42:19.530Z,91.20
2017-08-26T04:44:54.164Z,91.10
2017-08-26T04:47:22.027Z,91.00
2017-08-26T04:49:55.692Z,91.00
2017-08-26T04:52:24.845Z,90.90
2017-08-26T04:54:52.330Z,90.90
2017-08-26T04:57:19.857Z,90.90
2017-08-26T04:59:47.667Z,90.90
2017-08-26T05:02:15.153Z,90.90
2017-08-26T05:04:44.212Z,90.90
2017-08-26T05:07:11.729Z,90.90
2017-08-26T05:09:39.222Z,90.80
2017-08-26T05:12:14.121Z,90.80
2017-08-26T05:14:42.380Z,90.70
2017-08-26T05:17:10.633Z,90.70
2017-08-26T05:19:44.633Z,90.70
2017-08-26T05:22:12.157Z,90.70
2017-08-26T05:24:45.861Z,90.80
2017-08-26T05:27:13.343Z,90.80
2017-08-26T05:29:41.159Z,90.90
2017-08-26T05:32:15.010Z,90.80
2017-08-26T05:34:44.277Z,90.80
2017-08-26T05:37:11.771Z,90.60
2017-08-26T05:39:39.270Z,90.70
2017-08-26T05:42:13.847Z,90.60
2017-08-26T05:44:44.644Z,90.60
2017-08-26T05:47:15.645Z,90.60
2017-08-26T05:49:44.266Z,90.50
2017-08-26T05:52:15.330Z,90.50
2017-08-26T05:54:44.596Z,90.70
2017-08-26T05:57:15.558Z,90.70
2017-08-26T05:59:43.047Z,90.70
2017-08-26T06:02:10.541Z,90.60
2017-08-26T06:04:38.048Z,90.70
2017-08-26T06:07:05.545Z,90.60
2017-08-26T06:09:33.357Z,90.40
2017-08-26T06:12:00.855Z,90.40
2017-08-26T06:14:28.338Z,90.60
2017-08-26T06:16:55.835Z,90.20
2017-08-26T06:19:24.061Z,89.50
2017-08-26T06:21:51.823Z,90.00
2017-08-26T06:24:19.309Z,90.10
2017-08-26T06:26:46.807Z,90.00
2017-08-26T06:29:24.797Z,89.60
2017-08-26T06:31:52.292Z,89.10
2017-08-26T06:34:20.084Z,89.00
2017-08-26T06:36:54.471Z,87.60
2017-08-26T06:39:22.304Z,86.50
2017-08-26T06:41:50.564Z,86.60
2017-08-26T06:44:18.824Z,86.50
2017-08-26T06:46:46.620Z,86.50
2017-08-26T06:49:25.234Z,87.10
2017-08-26T06:51:53.063Z,87.80
2017-08-26T06:54:20.568Z,86.70
2017-08-26T06:56:54.523Z,87.00
2017-08-26T06:59:22.039Z,86.50
2017-08-26T07:01:55.994Z,86.10
2017-08-26T07:04:23.497Z,86.30
2017-08-26T07:06:51.058Z,86.30
2017-08-26T07:09:18.555Z,85.70
2017-08-26T07:11:46.060Z,85.90
2017-08-26T07:14:13.846Z,86.30
2017-08-26T07:16:42.096Z,85.50
2017-08-26T07:19:09.595Z,85.30
2017-08-26T07:21:37.100Z,85.90
2017-08-26T07:24:04.623Z,85.80
2017-08-26T07:26:35.661Z,85.10
2017-08-26T07:29:03.140Z,85.50
2017-08-26T07:31:30.619Z,84.80
2017-08-26T07:33:58.110Z,84.90
2017-08-26T07:36:25.612Z,84.90
2017-08-26T07:38:53.395Z,85.00
2017-08-26T07:41:24.609Z,85.00
2017-08-26T07:43:55.607Z,84.70
2017-08-26T07:46:23.105Z,84.50
2017-08-26T07:48:56.799Z,84.80
2017-08-26T07:51:34.178Z,84.40
2017-08-26T07:54:02.072Z,84.20
2017-08-26T07:56:35.544Z,84.30
2017-08-26T07:59:04.640Z,84.30
2017-08-26T08:01:32.130Z,84.30
2017-08-26T08:03:59.616Z,84.20
2017-08-26T08:06:34.007Z,84.60
2017-08-26T08:09:01.518Z,84.80
2017-08-26T08:11:29.323Z,84.50
2017-08-26T08:13:56.811Z,84.80
2017-08-26T08:16:35.095Z,84.80
2017-08-26T08:19:02.605Z,84.50
2017-08-26T08:21:30.879Z,81.80
2017-08-26T08:24:05.276Z,81.70
2017-08-26T08:26:32.765Z,80.60
2017-08-26T08:29:03.908Z,79.00
2017-08-26T08:31:31.410Z,79.10
2017-08-26T08:34:05.399Z,78.60
2017-08-26T08:36:33.252Z,78.20
2017-08-26T08:39:05.074Z,78.30
2017-08-26T08:41:34.419Z,78.20
2017-08-26T08:44:01.915Z,77.90
2017-08-26T08:46:29.400Z,77.00
2017-08-26T08:48:56.898Z,77.50
2017-08-26T08:51:24.402Z,76.30
2017-08-26T08:53:56.012Z,75.90
2017-08-26T08:56:24.368Z,75.70
2017-08-26T08:58:51.856Z,75.10
2017-08-26T09:01:25.473Z,73.60
2017-08-26T09:03:52.964Z,72.30
2017-08-26T09:06:20.486Z,72.20
2017-08-26T09:08:47.983Z,72.00
2017-08-26T09:11:23.832Z,70.90
2017-08-26T09:13:51.635Z,70.60
2017-08-26T09:16:19.142Z,68.40
2017-08-26T09:18:46.646Z,66.60
2017-08-26T09:21:23.771Z,63.90
2017-08-26T09:23:51.265Z,61.80
2017-08-26T09:26:25.210Z,59.30
2017-08-26T09:28:53.476Z,56.50
2017-08-26T09:31:20.993Z,56.40
2017-08-26T09:33:48.802Z,56.20
2017-08-26T09:36:23.801Z,56.40
2017-08-26T09:38:51.624Z,56.00
2017-08-26T09:41:19.125Z,56.50
2017-08-26T09:43:53.999Z,55.40
2017-08-26T09:46:21.489Z,54.00
2017-08-26T09:48:55.227Z,53.20
2017-08-26T09:51:25.728Z,52.70
2017-08-26T09:53:54.333Z,51.70
2017-08-26T09:56:25.120Z,51.20
2017-08-26T09:58:55.835Z,50.70
2017-08-26T10:01:24.544Z,50.10
2017-08-26T10:03:52.032Z,49.10
2017-08-26T10:06:19.820Z,48.70
2017-08-26T10:08:54.272Z,48.30
2017-08-26T10:11:22.107Z,47.90
2017-08-26T10:13:55.575Z,47.80
2017-08-26T10:16:23.367Z,47.20
2017-08-26T10:18:50.860Z,46.20
2017-08-26T10:21:24.960Z,45.60
2017-08-26T10:23:52.454Z,45.20
2017-08-26T10:26:19.935Z,45.70
2017-08-26T10:28:54.186Z,46.40
2017-08-26T10:31:21.675Z,46.00
2017-08-26T10:33:49.174Z,45.50
2017-08-26T10:36:17.703Z,44.50
2017-08-26T10:38:45.197Z,44.50
2017-08-26T10:41:12.691Z,45.10
2017-08-26T10:43:40.192Z,44.70
2017-08-26T10:46:14.325Z,44.20
2017-08-26T10:48:42.140Z,44.20
2017-08-26T10:51:15.724Z,43.80
2017-08-26T10:53:44.820Z,43.80
2017-08-26T10:56:14.195Z,42.60
2017-08-26T10:58:45.368Z,42.50
2017-08-26T11:01:12.963Z,42.00
2017-08-26T11:03:40.460Z,41.40
2017-08-26T11:06:13.822Z,42.80
2017-08-26T11:08:41.306Z,41.90
2017-08-26T11:11:09.120Z,42.10
2017-08-26T11:13:36.616Z,41.90
2017-08-26T11:16:04.939Z,41.00
2017-08-26T11:18:33.251Z,40.60
2017-08-26T11:21:04.526Z,40.60
2017-08-26T11:23:35.440Z,40.50
2017-08-26T11:26:02.956Z,40.00
2017-08-26T11:28:34.277Z,39.60
2017-08-26T11:31:01.774Z,39.70
2017-08-26T11:33:36.209Z,39.50
2017-08-26T11:36:03.709Z,39.40
2017-08-26T11:38:35.031Z,39.10
2017-08-26T11:41:06.139Z,38.00
2017-08-26T11:43:34.332Z,37.80
2017-08-26T11:46:01.811Z,37.80
2017-08-26T11:48:29.344Z,38.10
2017-08-26T11:50:56.831Z,38.20
2017-08-26T11:53:44.270Z,39.10
2017-08-26T11:56:11.759Z,39.30
2017-08-26T11:58:39.608Z,38.90
2017-08-26T12:01:14.450Z,38.80
2017-08-26T12:03:42.320Z,38.70
2017-08-26T12:06:09.824Z,38.60
2017-08-26T12:08:44.813Z,38.00
2017-08-26T12:11:12.330Z,37.10
2017-08-26T12:13:39.828Z,37.80
2017-08-26T12:16:14.109Z,38.60
2017-08-26T12:18:41.587Z,39.00
2017-08-26T12:21:15.336Z,39.00
2017-08-26T12:23:42.823Z,39.50
2017-08-26T12:26:10.320Z,40.70
2017-08-26T12:28:38.206Z,40.30
2017-08-26T12:31:05.704Z,41.10
2017-08-26T12:33:33.924Z,41.00
2017-08-26T12:36:01.411Z,41.90
2017-08-26T12:38:28.900Z,41.20
2017-08-26T12:41:03.746Z,40.20
2017-08-26T12:43:31.237Z,40.70
2017-08-26T12:46:05.499Z,40.70
2017-08-26T12:48:32.998Z,40.60
2017-08-26T12:51:04.922Z,38.10
2017-08-26T12:53:35.604Z,38.00
2017-08-26T12:56:03.096Z,37.40
2017-08-26T12:58:30.596Z,38.30
2017-08-26T13:01:03.872Z,38.00
2017-08-26T13:03:32.808Z,37.40
2017-08-26T13:06:00.316Z,37.30
2017-08-26T13:08:33.855Z,35.80
2017-08-26T13:11:02.110Z,35.00
2017-08-26T13:13:36.244Z,34.90
2017-08-26T13:16:04.836Z,38.40
2017-08-26T13:18:32.322Z,38.40
2017-08-26T13:20:59.821Z,40.10
2017-08-26T13:23:27.327Z,41.50
2017-08-26T13:26:05.199Z,41.90
2017-08-26T13:28:32.705Z,42.50
2017-08-26T13:31:06.467Z,43.20
2017-08-26T13:33:34.472Z,43.80
2017-08-26T13:36:01.981Z,44.60
2017-08-26T13:38:36.204Z,44.70
2017-08-26T13:41:04.618Z,45.20
2017-08-26T13:43:35.228Z,45.70
2017-08-26T13:46:03.639Z,46.80
2017-08-26T13:48:31.136Z,46.70
2017-08-26T13:51:04.834Z,46.60
2017-08-26T13:53:35.764Z,46.60
2017-08-26T13:56:04.549Z,46.60
2017-08-26T13:58:32.032Z,48.30
2017-08-26T14:00:59.514Z,48.10
2017-08-26T14:03:27.024Z,48.20
2017-08-26T14:06:04.405Z,49.10
2017-08-26T14:08:31.922Z,47.90
2017-08-26T14:10:59.399Z,47.70
2017-08-26T14:13:27.249Z,48.00
2017-08-26T14:16:04.988Z,48.30
2017-08-26T14:18:32.483Z,48.10
2017-08-26T14:21:06.254Z,47.10
2017-08-26T14:23:34.041Z,46.50
2017-08-26T14:26:01.530Z,45.20
2017-08-26T14:28:36.240Z,43.00
2017-08-26T14:31:04.762Z,43.00
2017-08-26T14:33:32.253Z,41.90
2017-08-26T14:36:05.700Z,40.60
2017-08-26T14:38:34.502Z,39.90
2017-08-26T14:41:05.426Z,39.40
2017-08-26T14:43:34.703Z,38.90
2017-08-26T14:46:05.567Z,39.10
2017-08-26T14:48:33.156Z,39.30
2017-08-26T14:51:00.659Z,40.10
2017-08-26T14:53:34.347Z,40.00
2017-08-26T14:56:01.836Z,40.20
2017-08-26T14:58:29.710Z,40.10
2017-08-26T15:00:57.204Z,40.70
2017-08-26T15:03:35.539Z,42.00
2017-08-26T15:06:03.030Z,41.40
2017-08-26T15:08:36.917Z,41.60
2017-08-26T15:11:14.337Z,41.80
2017-08-26T15:13:45.516Z,42.70
2017-08-26T15:16:13.044Z,43.30
2017-08-26T15:18:41.308Z,42.40
2017-08-26T15:21:08.912Z,42.30
2017-08-26T15:23:43.867Z,42.20
2017-08-26T15:26:11.679Z,43.00
2017-08-26T15:28:39.214Z,43.10
2017-08-26T15:31:14.478Z,43.10
2017-08-26T15:33:41.966Z,41.80
2017-08-26T15:36:15.998Z,42.20
2017-08-26T15:38:44.733Z,41.40
2017-08-26T15:41:15.397Z,41.80
2017-08-26T15:43:43.216Z,42.00
2017-08-26T15:46:16.458Z,42.00
2017-08-26T15:48:45.113Z,42.80
2017-08-26T15:51:13.416Z,42.70
2017-08-26T15:53:44.232Z,42.70
2017-08-26T15:56:11.773Z,42.20
2017-08-26T15:58:45.698Z,42.30
2017-08-26T16:01:13.997Z,43.00
2017-08-26T16:03:44.562Z,43.00
2017-08-26T16:06:15.753Z,42.90
2017-08-26T16:08:43.256Z,43.40
2017-08-26T16:11:10.744Z,44.30
2017-08-26T16:13:38.278Z,44.50
2017-08-26T16:16:13.668Z,45.10
2017-08-26T16:18:44.809Z,46.10
2017-08-26T16:21:12.323Z,46.90
2017-08-26T16:23:39.812Z,47.50
2017-08-26T16:26:15.203Z,47.20
2017-08-26T16:28:44.328Z,47.30
2017-08-26T16:31:12.101Z,47.90
2017-08-26T16:33:45.542Z,48.20
2017-08-26T16:36:13.312Z,48.50
2017-08-26T16:38:44.385Z,49.00
2017-08-26T16:41:11.869Z,49.30
2017-08-26T16:43:45.986Z,50.10
2017-08-26T16:46:13.486Z,50.60
2017-08-26T16:48:40.984Z,50.70
2017-08-26T16:51:14.148Z,51.10
2017-08-26T16:53:41.644Z,51.30
2017-08-26T16:56:09.476Z,51.80
2017-08-26T16:58:36.968Z,52.10
2017-08-26T17:01:14.576Z,52.30
2017-08-26T17:03:42.093Z,52.30
2017-08-26T17:06:15.931Z,52.80
2017-08-26T17:08:43.441Z,52.80
2017-08-26T17:11:14.442Z,53.20
2017-08-26T17:13:42.714Z,53.50
2017-08-26T17:16:10.209Z,53.40
2017-08-26T17:18:44.753Z,53.60
2017-08-26T17:21:12.548Z,53.90
2017-08-26T17:23:40.045Z,54.20
2017-08-26T17:26:13.649Z,54.20
2017-08-26T17:28:41.131Z,54.40
2017-08-26T17:31:15.492Z,54.50
2017-08-26T17:33:42.994Z,54.60
2017-08-26T17:36:10.489Z,54.80
2017-08-26T17:38:38.313Z,55.00
2017-08-26T17:41:05.810Z,55.00
2017-08-26T17:43:34.521Z,55.30
2017-08-26T17:46:02.024Z,55.50
2017-08-26T17:48:29.512Z,55.90
2017-08-26T17:50:58.418Z,56.00
2017-08-26T17:53:33.654Z,56.30
2017-08-26T17:56:05.074Z,56.50
2017-08-26T17:58:32.558Z,56.60
2017-08-26T18:01:06.262Z,56.80
2017-08-26T18:03:34.872Z,57.10
2017-08-26T18:06:02.359Z,57.40
2017-08-26T18:08:29.910Z,57.60
2017-08-26T18:10:57.400Z,57.80
2017-08-26T18:13:25.241Z,58.00
2017-08-26T18:15:52.729Z,58.20
2017-08-26T18:18:26.868Z,58.40
2017-08-26T18:21:04.498Z,58.60
2017-08-26T18:23:35.645Z,58.90
2017-08-26T18:26:03.209Z,59.20
2017-08-26T18:28:30.694Z,59.30
2017-08-26T18:31:04.255Z,59.50
2017-08-26T18:33:35.027Z,59.60
2017-08-26T18:36:04.056Z,59.80
2017-08-26T18:38:34.626Z,60.00
2017-08-26T18:41:04.653Z,60.40
2017-08-26T18:43:32.211Z,60.20
2017-08-26T18:46:06.399Z,60.90
2017-08-26T18:48:34.116Z,60.80
2017-08-26T18:51:04.767Z,61.00
2017-08-26T18:53:32.271Z,61.30
2017-08-26T18:56:00.522Z,61.60
2017-08-26T18:58:28.027Z,61.50
2017-08-26T19:00:55.543Z,61.70
2017-08-26T19:03:24.414Z,61.90
2017-08-26T19:05:52.020Z,62.00
2017-08-26T19:08:25.603Z,62.30
2017-08-26T19:10:54.407Z,62.50
2017-08-26T19:13:21.969Z,62.80
2017-08-26T19:15:50.242Z,63.70
2017-08-26T19:18:17.736Z,63.50
2017-08-26T19:20:45.247Z,64.00
2017-08-26T19:23:14.548Z,64.50
2017-08-26T19:25:45.390Z,65.10
2017-08-26T19:28:12.872Z,65.60
2017-08-26T19:30:40.360Z,65.90
2017-08-26T19:33:07.863Z,66.50
2017-08-26T19:35:36.156Z,67.50
2017-08-26T19:38:14.300Z,68.10
2017-08-26T19:40:41.815Z,68.00
2017-08-26T19:43:16.109Z,68.50
2017-08-26T19:45:43.600Z,69.10
2017-08-26T19:48:11.105Z,69.40
2017-08-26T19:50:38.619Z,69.50
2017-08-26T19:53:06.108Z,69.90
2017-08-26T19:55:33.619Z,70.10
2017-08-26T19:58:01.116Z,70.60
2017-08-26T20:00:28.949Z,70.90
2017-08-26T20:03:04.416Z,71.20
2017-08-26T20:05:32.175Z,71.50
2017-08-26T20:07:59.746Z,71.70
2017-08-26T20:10:34.468Z,72.00
2017-08-26T20:13:05.100Z,72.30
2017-08-26T20:15:36.124Z,73.30
2017-08-26T20:18:04.547Z,72.50
2017-08-26T20:20:35.196Z,72.60
2017-08-26T20:23:02.711Z,72.80
2017-08-26T20:25:30.203Z,72.90
2017-08-26T20:28:04.049Z,73.20
2017-08-26T20:30:34.891Z,73.40
2017-08-26T20:33:05.862Z,73.80
2017-08-26T20:35:33.351Z,74.00
2017-08-26T20:38:03.984Z,74.10
2017-08-26T20:40:31.488Z,74.20
2017-08-26T20:43:05.063Z,74.50
2017-08-26T20:45:32.690Z,74.50
2017-08-26T20:48:00.186Z,74.50
2017-08-26T20:50:27.956Z,74.30
2017-08-26T20:53:03.724Z,74.00
2017-08-26T20:55:31.504Z,73.90
2017-08-26T20:58:05.157Z,73.70
2017-08-26T21:00:34.331Z,73.80
2017-08-26T21:03:01.826Z,73.70
2017-08-26T21:05:29.436Z,73.90
2017-08-26T21:07:56.989Z,74.00
2017-08-26T21:10:34.647Z,74.00
2017-08-26T21:13:05.462Z,74.30
2017-08-26T21:15:32.962Z,74.50
2017-08-26T21:18:06.460Z,74.50
2017-08-26T21:20:34.264Z,74.60
2017-08-26T21:23:04.897Z,74.90
2017-08-26T21:25:32.389Z,75.10
2017-08-26T21:28:00.181Z,75.10
2017-08-26T21:30:28.475Z,75.40
2017-08-26T21:33:04.497Z,75.40
2017-08-26T21:35:31.990Z,75.70
2017-08-26T21:37:59.470Z,75.70
2017-08-26T21:40:26.988Z,75.70
2017-08-26T21:43:04.972Z,75.60
2017-08-26T21:45:32.747Z,75.70
2017-08-26T21:48:06.462Z,75.70
2017-08-26T21:50:34.364Z,75.80
2017-08-26T21:53:01.879Z,75.90
2017-08-26T21:55:29.446Z,76.10
2017-08-26T21:58:03.764Z,76.40
2017-08-26T22:00:34.560Z,76.30
2017-08-26T22:03:02.069Z,76.40
2017-08-26T22:05:35.551Z,76.60
2017-08-26T22:08:04.762Z,76.80
2017-08-26T22:10:32.323Z,76.90
2017-08-26T22:12:59.819Z,76.80
2017-08-26T22:15:27.364Z,76.70
2017-08-26T22:17:54.874Z,76.70
2017-08-26T22:20:25.603Z,76.70
2017-08-26T22:22:54.317Z,77.50
2017-08-26T22:25:21.817Z,76.80
2017-08-26T22:27:55.302Z,77.00
2017-08-26T22:30:24.399Z,77.10
2017-08-26T22:32:54.913Z,77.40
2017-08-26T22:35:25.858Z,77.60
2017-08-26T22:37:53.347Z,78.00
2017-08-26T22:40:24.694Z,78.00
2017-08-26T22:42:55.376Z,78.30
2017-08-26T22:45:22.851Z,78.40
2017-08-26T22:47:50.343Z,78.50
2017-08-26T22:50:17.841Z,78.60
2017-08-26T22:52:55.836Z,78.90
2017-08-26T22:55:23.339Z,78.80
2017-08-26T22:57:50.819Z,78.80
2017-08-26T23:00:18.339Z,78.90
2017-08-26T23:02:54.080Z,78.90
2017-08-26T23:05:21.977Z,78.90
2017-08-26T23:07:55.709Z,79.10
2017-08-26T23:10:23.538Z,79.10
2017-08-26T23:12:54.236Z,79.20
2017-08-26T23:15:25.007Z,79.30
2017-08-26T23:17:52.491Z,79.40
2017-08-26T23:20:20.014Z,79.50
2017-08-26T23:22:54.432Z,79.60
2017-08-26T23:25:25.239Z,79.80
2017-08-26T23:27:53.024Z,79.90
2017-08-26T23:30:26.223Z,79.90
2017-08-26T23:32:54.090Z,80.00
2017-08-26T23:35:21.641Z,80.10
2017-08-26T23:37:55.330Z,80.30
2017-08-26T23:40:22.964Z,80.40
2017-08-26T23:42:56.905Z,80.30
2017-08-26T23:45:25.159Z,80.60
2017-08-26T23:47:53.979Z,80.50
2017-08-26T23:50:24.499Z,80.70
2017-08-26T23:52:51.998Z,80.90
2017-08-26T23:55:19.531Z,81.00
2017-08-26T23:57:54.104Z,81.30
